sensor_id;sensor_type;location;lat;lon;timestamp;temperature;humidity
13992;DHT22;7070;53.586;9.692;2023-03-31T00:01:21;12.10;88.80
13992;DHT22;7070;53.586;9.692;2023-03-31T00:03:48;12.10;88.80
13992;DHT22;7070;53.586;9.692;2023-03-31T00:06:15;12.10;88.70
13992;DHT22;7070;53.586;9.692;2023-03-31T00:08:43;12.10;88.70
13992;DHT22;7070;53.586;9.692;2023-03-31T00:11:11;12.10;88.60
13992;DHT22;7070;53.586;9.692;2023-03-31T00:13:38;12.00;88.40
13992;DHT22;7070;53.586;9.692;2023-03-31T00:16:08;12.00;88.50
13992;DHT22;7070;53.586;9.692;2023-03-31T00:18:36;12.00;88.30
13992;DHT22;7070;53.586;9.692;2023-03-31T00:21:07;12.00;88.40
13992;DHT22;7070;53.586;9.692;2023-03-31T00:23:34;11.90;88.30
13992;DHT22;7070;53.586;9.692;2023-03-31T00:26:00;11.90;88.20
13992;DHT22;7070;53.586;9.692;2023-03-31T00:28:27;11.90;88.20
13992;DHT22;7070;53.586;9.692;2023-03-31T00:30:59;11.80;88.10
13992;DHT22;7070;53.586;9.692;2023-03-31T00:33:28;11.90;88.20
13992;DHT22;7070;53.586;9.692;2023-03-31T00:35:55;11.80;88.10
13992;DHT22;7070;53.586;9.692;2023-03-31T00:38:26;11.80;88.10
13992;DHT22;7070;53.586;9.692;2023-03-31T00:40:53;11.70;87.90
13992;DHT22;7070;53.586;9.692;2023-03-31T00:43:27;11.70;88.10
13992;DHT22;7070;53.586;9.692;2023-03-31T00:46:00;11.70;88.10
13992;DHT22;7070;53.586;9.692;2023-03-31T00:48:30;11.70;88.10
13992;DHT22;7070;53.586;9.692;2023-03-31T00:50:59;11.60;88.00
13992;DHT22;7070;53.586;9.692;2023-03-31T00:53:30;11.70;88.20
13992;DHT22;7070;53.586;9.692;2023-03-31T00:56:01;11.70;88.30
13992;DHT22;7070;53.586;9.692;2023-03-31T00:58:28;11.70;88.30
13992;DHT22;7070;53.586;9.692;2023-03-31T01:00:59;11.70;88.30
13992;DHT22;7070;53.586;9.692;2023-03-31T01:03:27;11.70;88.20
13992;DHT22;7070;53.586;9.692;2023-03-31T01:05:59;11.70;88.30
13992;DHT22;7070;53.586;9.692;2023-03-31T01:08:28;11.70;88.20
13992;DHT22;7070;53.586;9.692;2023-03-31T01:10:57;11.70;88.30
13992;DHT22;7070;53.586;9.692;2023-03-31T01:13:24;11.70;88.30
13992;DHT22;7070;53.586;9.692;2023-03-31T01:15:52;11.70;88.20
13992;DHT22;7070;53.586;9.692;2023-03-31T01:18:19;11.70;88.20
13992;DHT22;7070;53.586;9.692;2023-03-31T01:24:17;11.70;88.20
13992;DHT22;7070;53.586;9.692;2023-03-31T01:27:03;11.70;88.10
13992;DHT22;7070;53.586;9.692;2023-03-31T01:29:50;11.70;88.00
13992;DHT22;7070;53.586;9.692;2023-03-31T01:32:51;11.80;88.20
13992;DHT22;7070;53.586;9.692;2023-03-31T01:41:48;11.70;88.00
13992;DHT22;7070;53.586;9.692;2023-03-31T01:44:27;11.70;87.90
13992;DHT22;7070;53.586;9.692;2023-03-31T01:47:00;11.80;88.00
13992;DHT22;7070;53.586;9.692;2023-03-31T01:49:36;11.80;87.90
13992;DHT22;7070;53.586;9.692;2023-03-31T01:52:10;11.80;87.90
13992;DHT22;7070;53.586;9.692;2023-03-31T01:54:45;11.80;88.60
13992;DHT22;7070;53.586;9.692;2023-03-31T01:57:20;11.90;87.90
13992;DHT22;7070;53.586;9.692;2023-03-31T01:59:54;11.90;87.80
13992;DHT22;7070;53.586;9.692;2023-03-31T02:02:27;11.80;87.70
13992;DHT22;7070;53.586;9.692;2023-03-31T02:04:57;11.90;87.70
13992;DHT22;7070;53.586;9.692;2023-03-31T02:07:27;11.80;88.40
13992;DHT22;7070;53.586;9.692;2023-03-31T02:10:00;11.80;87.60
13992;DHT22;7070;53.586;9.692;2023-03-31T02:12:32;11.90;87.60
13992;DHT22;7070;53.586;9.692;2023-03-31T02:15:01;11.90;87.60
13992;DHT22;7070;53.586;9.692;2023-03-31T02:17:29;11.90;87.50
13992;DHT22;7070;53.586;9.692;2023-03-31T02:20:02;11.90;87.40
13992;DHT22;7070;53.586;9.692;2023-03-31T02:22:34;11.90;87.50
13992;DHT22;7070;53.586;9.692;2023-03-31T02:25:04;11.90;87.40
13992;DHT22;7070;53.586;9.692;2023-03-31T02:27:36;11.90;87.30
13992;DHT22;7070;53.586;9.692;2023-03-31T02:30:05;12.00;87.40
13992;DHT22;7070;53.586;9.692;2023-03-31T02:32:35;11.90;87.20
13992;DHT22;7070;53.586;9.692;2023-03-31T02:35:03;11.90;87.10
13992;DHT22;7070;53.586;9.692;2023-03-31T02:37:30;11.90;87.20
13992;DHT22;7070;53.586;9.692;2023-03-31T02:40:00;11.90;87.10
13992;DHT22;7070;53.586;9.692;2023-03-31T02:42:28;11.80;87.00
13992;DHT22;7070;53.586;9.692;2023-03-31T02:45:02;11.90;87.10
13992;DHT22;7070;53.586;9.692;2023-03-31T02:47:29;11.80;87.00
13992;DHT22;7070;53.586;9.692;2023-03-31T02:49:59;11.90;87.10
13992;DHT22;7070;53.586;9.692;2023-03-31T02:52:39;11.80;87.00
13992;DHT22;7070;53.586;9.692;2023-03-31T02:55:16;11.80;87.00
13992;DHT22;7070;53.586;9.692;2023-03-31T03:01:03;11.80;87.00
13992;DHT22;7070;53.586;9.692;2023-03-31T03:03:40;11.80;87.10
13992;DHT22;7070;53.586;9.692;2023-03-31T03:06:23;11.80;87.90
13992;DHT22;7070;53.586;9.692;2023-03-31T03:09:03;11.70;87.20
13992;DHT22;7070;53.586;9.692;2023-03-31T03:11:38;11.80;87.40
13992;DHT22;7070;53.586;9.692;2023-03-31T03:14:16;11.70;87.50
13992;DHT22;7070;53.586;9.692;2023-03-31T03:16:50;11.80;87.70
13992;DHT22;7070;53.586;9.692;2023-03-31T03:19:21;11.80;88.50
13992;DHT22;7070;53.586;9.692;2023-03-31T03:21:48;11.80;87.80
13992;DHT22;7070;53.586;9.692;2023-03-31T03:24:15;11.80;87.80
13992;DHT22;7070;53.586;9.692;2023-03-31T03:26:43;11.80;87.90
13992;DHT22;7070;53.586;9.692;2023-03-31T03:29:10;11.70;87.70
13992;DHT22;7070;53.586;9.692;2023-03-31T03:31:39;11.70;87.30
13992;DHT22;7070;53.586;9.692;2023-03-31T03:34:07;11.60;87.20
13992;DHT22;7070;53.586;9.692;2023-03-31T03:36:35;11.50;87.30
13992;DHT22;7070;53.586;9.692;2023-03-31T03:39:02;11.50;87.60
13992;DHT22;7070;53.586;9.692;2023-03-31T03:41:29;11.50;87.90
13992;DHT22;7070;53.586;9.692;2023-03-31T03:43:58;11.50;88.10
13992;DHT22;7070;53.586;9.692;2023-03-31T03:46:25;11.40;88.20
13992;DHT22;7070;53.586;9.692;2023-03-31T03:48:52;11.80;88.60
13992;DHT22;7070;53.586;9.692;2023-03-31T03:51:20;11.40;88.40
13992;DHT22;7070;53.586;9.692;2023-03-31T03:53:47;11.50;88.60
13992;DHT22;7070;53.586;9.692;2023-03-31T03:56:14;11.50;88.80
13992;DHT22;7070;53.586;9.692;2023-03-31T03:58:41;11.50;88.70
13992;DHT22;7070;53.586;9.692;2023-03-31T04:01:08;11.50;88.80
13992;DHT22;7070;53.586;9.692;2023-03-31T04:03:35;11.50;88.90
13992;DHT22;7070;53.586;9.692;2023-03-31T04:06:02;11.60;89.00
13992;DHT22;7070;53.586;9.692;2023-03-31T04:08:30;11.60;89.00
13992;DHT22;7070;53.586;9.692;2023-03-31T04:10:57;11.60;89.00
13992;DHT22;7070;53.586;9.692;2023-03-31T04:13:24;11.60;89.10
13992;DHT22;7070;53.586;9.692;2023-03-31T04:15:51;11.60;89.10
13992;DHT22;7070;53.586;9.692;2023-03-31T04:18:18;11.60;89.00
13992;DHT22;7070;53.586;9.692;2023-03-31T04:20:48;11.60;89.80
13992;DHT22;7070;53.586;9.692;2023-03-31T04:23:20;11.60;89.00
13992;DHT22;7070;53.586;9.692;2023-03-31T04:25:49;11.70;89.20
13992;DHT22;7070;53.586;9.692;2023-03-31T04:28:17;11.60;89.10
13992;DHT22;7070;53.586;9.692;2023-03-31T04:30:44;11.70;89.20
13992;DHT22;7070;53.586;9.692;2023-03-31T04:33:11;11.70;89.20
13992;DHT22;7070;53.586;9.692;2023-03-31T04:35:40;11.70;89.20
13992;DHT22;7070;53.586;9.692;2023-03-31T04:38:15;11.70;89.20
13992;DHT22;7070;53.586;9.692;2023-03-31T04:40:45;11.70;89.30
13992;DHT22;7070;53.586;9.692;2023-03-31T04:43:14;12.30;89.90
13992;DHT22;7070;53.586;9.692;2023-03-31T04:45:41;11.70;89.40
13992;DHT22;7070;53.586;9.692;2023-03-31T04:48:08;11.70;89.50
13992;DHT22;7070;53.586;9.692;2023-03-31T04:50:35;11.70;89.50
13992;DHT22;7070;53.586;9.692;2023-03-31T04:53:03;11.70;89.50
13992;DHT22;7070;53.586;9.692;2023-03-31T04:55:30;11.70;89.50
13992;DHT22;7070;53.586;9.692;2023-03-31T04:57:57;11.70;89.50
13992;DHT22;7070;53.586;9.692;2023-03-31T05:00:25;11.70;89.50
13992;DHT22;7070;53.586;9.692;2023-03-31T05:02:53;11.70;90.10
13992;DHT22;7070;53.586;9.692;2023-03-31T05:05:20;11.80;89.70
13992;DHT22;7070;53.586;9.692;2023-03-31T05:07:47;11.70;89.70
13992;DHT22;7070;53.586;9.692;2023-03-31T05:10:14;11.80;89.70
13992;DHT22;7070;53.586;9.692;2023-03-31T05:12:41;11.80;89.80
13992;DHT22;7070;53.586;9.692;2023-03-31T05:15:08;11.80;89.60
13992;DHT22;7070;53.586;9.692;2023-03-31T05:17:37;11.80;89.70
13992;DHT22;7070;53.586;9.692;2023-03-31T05:20:04;11.80;89.80
13992;DHT22;7070;53.586;9.692;2023-03-31T05:22:34;11.80;89.80
13992;DHT22;7070;53.586;9.692;2023-03-31T05:25:01;11.90;89.90
13992;DHT22;7070;53.586;9.692;2023-03-31T05:27:30;11.80;89.80
13992;DHT22;7070;53.586;9.692;2023-03-31T05:29:57;11.80;89.70
13992;DHT22;7070;53.586;9.692;2023-03-31T05:32:25;11.80;89.80
13992;DHT22;7070;53.586;9.692;2023-03-31T05:34:53;11.80;89.70
13992;DHT22;7070;53.586;9.692;2023-03-31T05:37:22;11.80;89.60
13992;DHT22;7070;53.586;9.692;2023-03-31T05:39:49;11.80;89.60
13992;DHT22;7070;53.586;9.692;2023-03-31T05:42:17;11.80;89.60
13992;DHT22;7070;53.586;9.692;2023-03-31T05:44:44;11.80;89.80
13992;DHT22;7070;53.586;9.692;2023-03-31T05:47:11;11.80;89.80
13992;DHT22;7070;53.586;9.692;2023-03-31T05:49:38;11.80;89.90
13992;DHT22;7070;53.586;9.692;2023-03-31T05:52:07;11.80;89.90
13992;DHT22;7070;53.586;9.692;2023-03-31T05:54:34;11.90;90.00
13992;DHT22;7070;53.586;9.692;2023-03-31T05:57:02;11.80;89.90
13992;DHT22;7070;53.586;9.692;2023-03-31T05:59:29;11.80;89.90
13992;DHT22;7070;53.586;9.692;2023-03-31T06:01:55;11.90;90.00
13992;DHT22;7070;53.586;9.692;2023-03-31T06:04:22;11.90;90.00
13992;DHT22;7070;53.586;9.692;2023-03-31T06:06:49;11.90;90.00
13992;DHT22;7070;53.586;9.692;2023-03-31T06:09:20;11.90;90.00
13992;DHT22;7070;53.586;9.692;2023-03-31T06:11:47;12.00;90.00
13992;DHT22;7070;53.586;9.692;2023-03-31T06:14:14;11.90;89.90
13992;DHT22;7070;53.586;9.692;2023-03-31T06:16:40;12.00;90.00
13992;DHT22;7070;53.586;9.692;2023-03-31T06:19:08;12.00;90.00
13992;DHT22;7070;53.586;9.692;2023-03-31T06:21:34;12.00;90.00
13992;DHT22;7070;53.586;9.692;2023-03-31T06:24:01;12.10;90.00
13992;DHT22;7070;53.586;9.692;2023-03-31T06:26:29;12.20;90.10
13992;DHT22;7070;53.586;9.692;2023-03-31T06:28:56;12.20;90.00
13992;DHT22;7070;53.586;9.692;2023-03-31T06:31:24;12.20;90.00
13992;DHT22;7070;53.586;9.692;2023-03-31T06:33:51;12.20;90.30
13992;DHT22;7070;53.586;9.692;2023-03-31T06:36:19;12.30;90.00
13992;DHT22;7070;53.586;9.692;2023-03-31T06:38:47;12.30;89.80
13992;DHT22;7070;53.586;9.692;2023-03-31T06:41:15;12.30;89.70
13992;DHT22;7070;53.586;9.692;2023-03-31T06:43:44;12.30;89.60
13992;DHT22;7070;53.586;9.692;2023-03-31T06:46:11;12.40;89.60
13992;DHT22;7070;53.586;9.692;2023-03-31T06:48:38;12.50;89.70
13992;DHT22;7070;53.586;9.692;2023-03-31T06:51:06;12.60;89.80
13992;DHT22;7070;53.586;9.692;2023-03-31T06:53:34;12.60;89.80
13992;DHT22;7070;53.586;9.692;2023-03-31T06:56:01;12.70;89.70
13992;DHT22;7070;53.586;9.692;2023-03-31T06:58:28;12.80;89.80
13992;DHT22;7070;53.586;9.692;2023-03-31T07:00:57;12.90;90.00
13992;DHT22;7070;53.586;9.692;2023-03-31T07:03:23;12.90;89.70
13992;DHT22;7070;53.586;9.692;2023-03-31T07:05:51;13.00;89.70
13992;DHT22;7070;53.586;9.692;2023-03-31T07:08:19;13.20;90.00
13992;DHT22;7070;53.586;9.692;2023-03-31T07:10:46;13.20;89.90
13992;DHT22;7070;53.586;9.692;2023-03-31T07:13:13;13.20;89.70
13992;DHT22;7070;53.586;9.692;2023-03-31T07:15:40;13.30;89.70
13992;DHT22;7070;53.586;9.692;2023-03-31T07:18:09;13.30;89.70
13992;DHT22;7070;53.586;9.692;2023-03-31T07:20:37;13.40;89.80
13992;DHT22;7070;53.586;9.692;2023-03-31T07:23:04;13.50;89.80
13992;DHT22;7070;53.586;9.692;2023-03-31T07:25:32;13.50;89.60
13992;DHT22;7070;53.586;9.692;2023-03-31T07:27:59;13.50;89.60
13992;DHT22;7070;53.586;9.692;2023-03-31T07:30:26;13.60;89.50
13992;DHT22;7070;53.586;9.692;2023-03-31T07:32:53;13.70;89.40
13992;DHT22;7070;53.586;9.692;2023-03-31T07:35:22;13.70;89.20
13992;DHT22;7070;53.586;9.692;2023-03-31T07:37:49;13.70;89.00
13992;DHT22;7070;53.586;9.692;2023-03-31T07:40:18;13.80;89.10
13992;DHT22;7070;53.586;9.692;2023-03-31T07:42:46;13.80;88.80
13992;DHT22;7070;53.586;9.692;2023-03-31T07:45:13;13.70;88.60
13992;DHT22;7070;53.586;9.692;2023-03-31T07:47:41;13.80;88.50
13992;DHT22;7070;53.586;9.692;2023-03-31T07:50:09;13.90;88.50
13992;DHT22;7070;53.586;9.692;2023-03-31T07:52:37;13.80;88.30
13992;DHT22;7070;53.586;9.692;2023-03-31T07:55:06;13.80;88.40
13992;DHT22;7070;53.586;9.692;2023-03-31T07:57:33;13.80;88.30
13992;DHT22;7070;53.586;9.692;2023-03-31T08:00:00;13.80;88.20
13992;DHT22;7070;53.586;9.692;2023-03-31T08:02:31;13.90;88.20
13992;DHT22;7070;53.586;9.692;2023-03-31T08:04:58;13.90;88.20
13992;DHT22;7070;53.586;9.692;2023-03-31T08:07:25;13.80;88.10
13992;DHT22;7070;53.586;9.692;2023-03-31T08:09:56;13.90;88.20
13992;DHT22;7070;53.586;9.692;2023-03-31T08:12:23;13.80;88.10
13992;DHT22;7070;53.586;9.692;2023-03-31T08:14:50;13.90;88.10
13992;DHT22;7070;53.586;9.692;2023-03-31T08:17:17;13.90;88.20
13992;DHT22;7070;53.586;9.692;2023-03-31T08:19:44;13.90;88.20
13992;DHT22;7070;53.586;9.692;2023-03-31T08:22:10;13.90;88.20
13992;DHT22;7070;53.586;9.692;2023-03-31T08:24:37;13.90;88.30
13992;DHT22;7070;53.586;9.692;2023-03-31T08:27:05;13.90;88.40
13992;DHT22;7070;53.586;9.692;2023-03-31T08:29:32;14.00;88.40
13992;DHT22;7070;53.586;9.692;2023-03-31T08:31:59;14.00;88.30
13992;DHT22;7070;53.586;9.692;2023-03-31T08:34:26;14.00;88.30
13992;DHT22;7070;53.586;9.692;2023-03-31T08:36:53;14.10;88.30
13992;DHT22;7070;53.586;9.692;2023-03-31T08:39:20;14.10;88.30
13992;DHT22;7070;53.586;9.692;2023-03-31T08:41:53;14.20;88.20
13992;DHT22;7070;53.586;9.692;2023-03-31T08:44:28;14.20;88.10
13992;DHT22;7070;53.586;9.692;2023-03-31T08:46:58;14.20;88.00
13992;DHT22;7070;53.586;9.692;2023-03-31T08:49:28;14.10;88.00
13992;DHT22;7070;53.586;9.692;2023-03-31T08:52:00;14.20;87.90
13992;DHT22;7070;53.586;9.692;2023-03-31T08:54:31;14.10;87.80
13992;DHT22;7070;53.586;9.692;2023-03-31T08:56:59;14.20;87.80
13992;DHT22;7070;53.586;9.692;2023-03-31T08:59:29;14.10;87.80
13992;DHT22;7070;53.586;9.692;2023-03-31T09:02:02;14.20;87.90
13992;DHT22;7070;53.586;9.692;2023-03-31T09:07:37;14.10;87.80
13992;DHT22;7070;53.586;9.692;2023-03-31T09:10:20;14.10;87.80
13992;DHT22;7070;53.586;9.692;2023-03-31T09:12:54;14.00;87.70
13992;DHT22;7070;53.586;9.692;2023-03-31T09:15:26;14.10;88.00
13992;DHT22;7070;53.586;9.692;2023-03-31T09:17:55;14.00;88.10
13992;DHT22;7070;53.586;9.692;2023-03-31T09:20:28;14.10;88.30
13992;DHT22;7070;53.586;9.692;2023-03-31T09:23:00;14.10;88.40
13992;DHT22;7070;53.586;9.692;2023-03-31T09:25:32;14.20;88.60
13992;DHT22;7070;53.586;9.692;2023-03-31T09:28:01;14.30;88.60
13992;DHT22;7070;53.586;9.692;2023-03-31T09:30:33;14.40;88.60
13992;DHT22;7070;53.586;9.692;2023-03-31T09:33:09;14.50;88.70
13992;DHT22;7070;53.586;9.692;2023-03-31T09:35:37;14.60;88.60
13992;DHT22;7070;53.586;9.692;2023-03-31T09:38:05;14.70;88.50
13992;DHT22;7070;53.586;9.692;2023-03-31T09:40:32;14.80;88.40
13992;DHT22;7070;53.586;9.692;2023-03-31T09:43:02;14.80;88.30
13992;DHT22;7070;53.586;9.692;2023-03-31T09:45:31;14.90;88.30
13992;DHT22;7070;53.586;9.692;2023-03-31T09:48:02;15.00;88.40
13992;DHT22;7070;53.586;9.692;2023-03-31T09:50:32;15.10;88.50
13992;DHT22;7070;53.586;9.692;2023-03-31T09:53:04;15.20;88.20
13992;DHT22;7070;53.586;9.692;2023-03-31T09:55:43;15.20;87.90
13992;DHT22;7070;53.586;9.692;2023-03-31T09:58:12;15.30;87.90
13992;DHT22;7070;53.586;9.692;2023-03-31T10:00:42;15.30;87.80
13992;DHT22;7070;53.586;9.692;2023-03-31T10:03:11;15.30;88.50
13992;DHT22;7070;53.586;9.692;2023-03-31T10:05:47;15.40;88.00
13992;DHT22;7070;53.586;9.692;2023-03-31T10:08:21;15.40;87.90
13992;DHT22;7070;53.586;9.692;2023-03-31T10:10:51;15.50;87.80
13992;DHT22;7070;53.586;9.692;2023-03-31T10:13:21;15.60;87.80
13992;DHT22;7070;53.586;9.692;2023-03-31T10:15:53;15.70;87.70
13992;DHT22;7070;53.586;9.692;2023-03-31T10:18:31;15.60;87.40
13992;DHT22;7070;53.586;9.692;2023-03-31T10:20:59;15.80;87.30
13992;DHT22;7070;53.586;9.692;2023-03-31T10:23:29;15.90;87.10
13992;DHT22;7070;53.586;9.692;2023-03-31T10:25:57;15.90;87.10
13992;DHT22;7070;53.586;9.692;2023-03-31T10:28:25;15.90;86.90
13992;DHT22;7070;53.586;9.692;2023-03-31T10:30:55;16.00;86.70
13992;DHT22;7070;53.586;9.692;2023-03-31T10:33:27;16.00;86.70
13992;DHT22;7070;53.586;9.692;2023-03-31T10:35:57;16.00;86.70
13992;DHT22;7070;53.586;9.692;2023-03-31T10:38:27;16.10;87.60
13992;DHT22;7070;53.586;9.692;2023-03-31T10:40:57;16.10;86.80
13992;DHT22;7070;53.586;9.692;2023-03-31T10:43:26;16.20;86.70
13992;DHT22;7070;53.586;9.692;2023-03-31T10:45:56;16.20;86.60
13992;DHT22;7070;53.586;9.692;2023-03-31T10:48:26;16.30;86.40
13992;DHT22;7070;53.586;9.692;2023-03-31T10:50:54;16.40;86.40
13992;DHT22;7070;53.586;9.692;2023-03-31T10:53:24;16.50;86.30
13992;DHT22;7070;53.586;9.692;2023-03-31T10:56:12;16.60;86.40
13992;DHT22;7070;53.586;9.692;2023-03-31T10:58:48;16.70;86.20
13992;DHT22;7070;53.586;9.692;2023-03-31T11:01:28;16.70;85.80
13992;DHT22;7070;53.586;9.692;2023-03-31T11:04:11;16.80;86.40
13992;DHT22;7070;53.586;9.692;2023-03-31T11:06:51;16.80;85.70
13992;DHT22;7070;53.586;9.692;2023-03-31T11:09:33;16.80;85.50
13992;DHT22;7070;53.586;9.692;2023-03-31T11:12:08;16.80;85.50
13992;DHT22;7070;53.586;9.692;2023-03-31T11:14:49;16.80;85.10
13992;DHT22;7070;53.586;9.692;2023-03-31T11:17:31;16.80;84.90
13992;DHT22;7070;53.586;9.692;2023-03-31T11:20:11;16.80;84.80
13992;DHT22;7070;53.586;9.692;2023-03-31T11:22:47;16.70;84.40
13992;DHT22;7070;53.586;9.692;2023-03-31T11:25:22;16.70;84.30
13992;DHT22;7070;53.586;9.692;2023-03-31T11:28:12;16.60;84.10
13992;DHT22;7070;53.586;9.692;2023-03-31T11:30:45;16.60;84.10
13992;DHT22;7070;53.586;9.692;2023-03-31T11:33:36;16.60;83.80
13992;DHT22;7070;53.586;9.692;2023-03-31T11:36:17;16.50;83.80
13992;DHT22;7070;53.586;9.692;2023-03-31T11:39:03;16.50;83.50
13992;DHT22;7070;53.586;9.692;2023-03-31T11:41:38;16.30;83.20
13992;DHT22;7070;53.586;9.692;2023-03-31T11:44:11;16.20;83.10
13992;DHT22;7070;53.586;9.692;2023-03-31T11:46:42;16.10;83.00
13992;DHT22;7070;53.586;9.692;2023-03-31T11:49:16;15.90;83.00
13992;DHT22;7070;53.586;9.692;2023-03-31T11:51:48;15.90;84.00
13992;DHT22;7070;53.586;9.692;2023-03-31T11:54:21;15.80;83.30
13992;DHT22;7070;53.586;9.692;2023-03-31T11:56:50;15.60;83.10
13992;DHT22;7070;53.586;9.692;2023-03-31T11:59:19;15.60;83.30
13992;DHT22;7070;53.586;9.692;2023-03-31T12:01:50;15.50;83.30
13992;DHT22;7070;53.586;9.692;2023-03-31T12:04:29;15.50;83.60
13992;DHT22;7070;53.586;9.692;2023-03-31T12:07:03;15.30;83.60
13992;DHT22;7070;53.586;9.692;2023-03-31T12:09:37;15.20;83.60
13992;DHT22;7070;53.586;9.692;2023-03-31T12:12:13;15.20;83.80
13992;DHT22;7070;53.586;9.692;2023-03-31T12:14:47;15.20;83.90
13992;DHT22;7070;53.586;9.692;2023-03-31T12:17:17;15.10;83.80
13992;DHT22;7070;53.586;9.692;2023-03-31T12:19:48;15.10;83.90
13992;DHT22;7070;53.586;9.692;2023-03-31T12:22:18;15.00;83.90
13992;DHT22;7070;53.586;9.692;2023-03-31T12:24:47;14.90;84.00
13992;DHT22;7070;53.586;9.692;2023-03-31T12:27:17;14.90;84.10
13992;DHT22;7070;53.586;9.692;2023-03-31T12:29:52;14.80;84.00
13992;DHT22;7070;53.586;9.692;2023-03-31T12:32:22;14.70;84.10
13992;DHT22;7070;53.586;9.692;2023-03-31T12:34:55;14.70;84.10
13992;DHT22;7070;53.586;9.692;2023-03-31T12:37:55;14.70;84.40
13992;DHT22;7070;53.586;9.692;2023-03-31T12:40:33;14.70;84.50
13992;DHT22;7070;53.586;9.692;2023-03-31T12:46:02;14.70;85.00
13992;DHT22;7070;53.586;9.692;2023-03-31T12:48:47;14.70;85.30
13992;DHT22;7070;53.586;9.692;2023-03-31T12:51:34;14.80;85.40
13992;DHT22;7070;53.586;9.692;2023-03-31T12:54:13;15.00;85.70
13992;DHT22;7070;53.586;9.692;2023-03-31T12:57:07;15.20;85.70
13992;DHT22;7070;53.586;9.692;2023-03-31T12:59:41;15.40;85.70
13992;DHT22;7070;53.586;9.692;2023-03-31T13:02:22;15.50;85.40
13992;DHT22;7070;53.586;9.692;2023-03-31T13:04:49;15.60;85.40
13992;DHT22;7070;53.586;9.692;2023-03-31T13:07:40;15.80;85.20
13992;DHT22;7070;53.586;9.692;2023-03-31T13:10:26;15.90;85.30
13992;DHT22;7070;53.586;9.692;2023-03-31T13:13:00;16.10;85.20
13992;DHT22;7070;53.586;9.692;2023-03-31T13:15:29;16.20;85.10
13992;DHT22;7070;53.586;9.692;2023-03-31T13:17:58;16.40;84.90
13992;DHT22;7070;53.586;9.692;2023-03-31T13:20:35;16.50;84.70
13992;DHT22;7070;53.586;9.692;2023-03-31T13:23:19;16.60;84.70
13992;DHT22;7070;53.586;9.692;2023-03-31T13:25:48;16.70;84.60
13992;DHT22;7070;53.586;9.692;2023-03-31T13:28:30;16.80;84.20
13992;DHT22;7070;53.586;9.692;2023-03-31T13:30:59;16.90;84.90
13992;DHT22;7070;53.586;9.692;2023-03-31T13:33:30;17.00;84.00
13992;DHT22;7070;53.586;9.692;2023-03-31T13:36:21;17.00;83.60
13992;DHT22;7070;53.586;9.692;2023-03-31T13:39:06;17.10;83.50
13992;DHT22;7070;53.586;9.692;2023-03-31T13:41:48;17.10;83.00
13992;DHT22;7070;53.586;9.692;2023-03-31T13:44:48;17.10;82.90
13992;DHT22;7070;53.586;9.692;2023-03-31T13:47:47;17.00;82.70
13992;DHT22;7070;53.586;9.692;2023-03-31T13:50:30;17.00;82.80
13992;DHT22;7070;53.586;9.692;2023-03-31T13:53:07;16.90;83.00
13992;DHT22;7070;53.586;9.692;2023-03-31T13:56:08;17.00;82.90
13992;DHT22;7070;53.586;9.692;2023-03-31T13:58:47;17.00;82.40
13992;DHT22;7070;53.586;9.692;2023-03-31T14:01:39;17.00;82.10
13992;DHT22;7070;53.586;9.692;2023-03-31T14:07:14;16.90;81.70
13992;DHT22;7070;53.586;9.692;2023-03-31T14:09:43;16.90;81.90
13992;DHT22;7070;53.586;9.692;2023-03-31T14:12:29;16.80;81.70
13992;DHT22;7070;53.586;9.692;2023-03-31T14:14:57;16.80;81.70
13992;DHT22;7070;53.586;9.692;2023-03-31T14:17:26;16.80;81.60
13992;DHT22;7070;53.586;9.692;2023-03-31T14:20:09;16.80;81.80
13992;DHT22;7070;53.586;9.692;2023-03-31T14:22:46;16.90;81.90
13992;DHT22;7070;53.586;9.692;2023-03-31T14:25:19;16.90;81.90
13992;DHT22;7070;53.586;9.692;2023-03-31T14:27:58;17.00;81.90
13992;DHT22;7070;53.586;9.692;2023-03-31T14:30:36;17.10;82.20
13992;DHT22;7070;53.586;9.692;2023-03-31T14:33:17;17.10;82.20
13992;DHT22;7070;53.586;9.692;2023-03-31T14:35:52;17.20;82.10
13992;DHT22;7070;53.586;9.692;2023-03-31T14:38:22;17.30;81.90
13992;DHT22;7070;53.586;9.692;2023-03-31T14:40:52;17.30;81.40
13992;DHT22;7070;53.586;9.692;2023-03-31T14:43:25;17.40;81.10
13992;DHT22;7070;53.586;9.692;2023-03-31T14:45:57;17.40;80.90
13992;DHT22;7070;53.586;9.692;2023-03-31T14:48:26;17.30;80.40
13992;DHT22;7070;53.586;9.692;2023-03-31T14:50:56;17.20;79.70
13992;DHT22;7070;53.586;9.692;2023-03-31T14:53:25;17.00;79.40
13992;DHT22;7070;53.586;9.692;2023-03-31T14:55:58;16.70;79.20
13992;DHT22;7070;53.586;9.692;2023-03-31T14:58:30;16.50;79.20
13992;DHT22;7070;53.586;9.692;2023-03-31T15:00:59;16.20;79.50
13992;DHT22;7070;53.586;9.692;2023-03-31T15:03:28;16.00;79.60
13992;DHT22;7070;53.586;9.692;2023-03-31T15:05:57;15.80;80.00
13992;DHT22;7070;53.586;9.692;2023-03-31T15:08:25;15.70;80.30
13992;DHT22;7070;53.586;9.692;2023-03-31T15:10:56;15.60;80.60
13992;DHT22;7070;53.586;9.692;2023-03-31T15:13:29;15.40;80.90
13992;DHT22;7070;53.586;9.692;2023-03-31T15:15:58;15.30;81.10
13992;DHT22;7070;53.586;9.692;2023-03-31T15:18:25;15.20;81.20
13992;DHT22;7070;53.586;9.692;2023-03-31T15:20:52;15.20;81.50
13992;DHT22;7070;53.586;9.692;2023-03-31T15:23:21;15.10;81.60
13992;DHT22;7070;53.586;9.692;2023-03-31T15:25:53;15.10;81.90
13992;DHT22;7070;53.586;9.692;2023-03-31T15:28:22;15.00;82.00
13992;DHT22;7070;53.586;9.692;2023-03-31T15:30:51;15.00;82.20
13992;DHT22;7070;53.586;9.692;2023-03-31T15:33:21;15.00;82.50
13992;DHT22;7070;53.586;9.692;2023-03-31T15:35:49;15.00;82.50
13992;DHT22;7070;53.586;9.692;2023-03-31T15:38:16;15.10;82.60
13992;DHT22;7070;53.586;9.692;2023-03-31T15:40:44;15.10;82.70
13992;DHT22;7070;53.586;9.692;2023-03-31T15:43:16;15.10;82.60
13992;DHT22;7070;53.586;9.692;2023-03-31T15:45:48;15.10;82.80
13992;DHT22;7070;53.586;9.692;2023-03-31T15:48:19;15.00;82.60
13992;DHT22;7070;53.586;9.692;2023-03-31T15:50:47;15.10;82.60
13992;DHT22;7070;53.586;9.692;2023-03-31T15:53:30;15.10;82.60
13992;DHT22;7070;53.586;9.692;2023-03-31T15:56:00;15.00;82.40
13992;DHT22;7070;53.586;9.692;2023-03-31T15:58:46;15.00;82.30
13992;DHT22;7070;53.586;9.692;2023-03-31T16:01:14;14.90;82.20
13992;DHT22;7070;53.586;9.692;2023-03-31T16:03:44;14.90;82.10
13992;DHT22;7070;53.586;9.692;2023-03-31T16:06:19;14.80;81.90
13992;DHT22;7070;53.586;9.692;2023-03-31T16:08:51;14.70;81.90
13992;DHT22;7070;53.586;9.692;2023-03-31T16:11:21;14.70;81.90
13992;DHT22;7070;53.586;9.692;2023-03-31T16:13:52;14.60;82.00
13992;DHT22;7070;53.586;9.692;2023-03-31T16:16:22;14.60;82.10
13992;DHT22;7070;53.586;9.692;2023-03-31T16:18:52;14.50;82.00
13992;DHT22;7070;53.586;9.692;2023-03-31T16:21:24;14.40;82.00
13992;DHT22;7070;53.586;9.692;2023-03-31T16:23:54;14.30;82.20
13992;DHT22;7070;53.586;9.692;2023-03-31T16:26:22;14.30;82.30
13992;DHT22;7070;53.586;9.692;2023-03-31T16:28:51;14.20;82.50
13992;DHT22;7070;53.586;9.692;2023-03-31T16:31:30;14.20;82.70
13992;DHT22;7070;53.586;9.692;2023-03-31T16:34:01;14.10;83.00